createdAt,value
2018-05-08T00:00:38.035Z,8.80
2018-05-08T00:03:05.577Z,8.70
2018-05-08T00:05:33.139Z,8.70
2018-05-08T00:08:00.683Z,8.70
2018-05-08T00:10:28.238Z,8.60
2018-05-08T00:12:55.868Z,8.60
2018-05-08T00:15:23.463Z,8.60
2018-05-08T00:17:51.831Z,8.60
2018-05-08T00:20:19.446Z,8.60
2018-05-08T00:22:47.109Z,8.60
2018-05-08T00:25:14.710Z,8.50
2018-05-08T00:27:42.322Z,8.50
2018-05-08T00:30:09.910Z,8.50
2018-05-08T00:32:37.573Z,8.40
2018-05-08T00:35:05.942Z,8.30
2018-05-08T00:37:33.535Z,8.30
2018-05-08T00:40:01.229Z,8.30
2018-05-08T00:42:28.824Z,8.30
2018-05-08T00:44:56.415Z,8.30
2018-05-08T00:47:24.041Z,8.30
2018-05-08T00:49:52.434Z,8.20
2018-05-08T00:52:20.793Z,8.30
2018-05-08T00:55:00.081Z,8.20
2018-05-08T00:57:27.694Z,8.20
2018-05-08T00:59:55.285Z,8.20
2018-05-08T01:02:22.885Z,8.20
2018-05-08T01:04:50.490Z,8.20
2018-05-08T01:07:18.865Z,8.20
2018-05-08T01:09:47.232Z,8.20
2018-05-08T01:12:14.825Z,8.20
2018-05-08T01:14:42.418Z,8.10
2018-05-08T01:17:10.022Z,8.10
2018-05-08T01:19:37.646Z,8.10
2018-05-08T01:22:05.233Z,8.10
2018-05-08T01:24:32.866Z,8.10
2018-05-08T01:27:00.458Z,8.10
2018-05-08T01:29:28.121Z,8.10
2018-05-08T01:31:55.735Z,8.10
2018-05-08T01:34:23.321Z,8.10
2018-05-08T01:36:50.918Z,8.00
2018-05-08T01:39:18.539Z,8.00
2018-05-08T01:41:46.130Z,8.00
2018-05-08T01:44:13.731Z,8.00
2018-05-08T01:46:41.331Z,7.90
2018-05-08T01:49:08.926Z,7.90
2018-05-08T01:51:36.536Z,7.90
2018-05-08T01:54:04.156Z,7.90
2018-05-08T01:56:31.782Z,7.90
2018-05-08T01:58:59.406Z,7.80
2018-05-08T02:04:30.115Z,7.80
2018-05-08T02:06:57.722Z,7.80
2018-05-08T02:09:25.327Z,7.70
2018-05-08T02:11:53.005Z,7.80
2018-05-08T02:14:20.676Z,7.70
2018-05-08T02:16:48.271Z,7.80
2018-05-08T02:19:15.926Z,7.80
2018-05-08T02:21:43.522Z,7.80
2018-05-08T02:24:11.159Z,7.70
2018-05-08T02:26:38.866Z,7.70
2018-05-08T02:29:07.975Z,7.70
2018-05-08T02:31:36.338Z,7.70
2018-05-08T02:34:03.967Z,7.70
2018-05-08T02:36:32.343Z,7.70
2018-05-08T02:38:59.929Z,7.70
2018-05-08T02:41:27.530Z,7.70
2018-05-08T02:43:55.891Z,7.60
2018-05-08T02:46:23.491Z,7.50
2018-05-08T02:48:51.135Z,7.60
2018-05-08T02:51:18.786Z,7.60
2018-05-08T02:53:47.137Z,7.60
2018-05-08T02:56:15.531Z,7.60
2018-05-08T02:58:43.894Z,7.60
2018-05-08T03:01:11.482Z,7.60
2018-05-08T03:03:39.881Z,7.50
2018-05-08T03:06:07.448Z,7.60
2018-05-08T03:08:35.000Z,7.60
2018-05-08T03:11:02.592Z,7.60
2018-05-08T03:13:30.209Z,7.70
2018-05-08T03:15:57.806Z,7.60
2018-05-08T03:18:25.413Z,7.60
2018-05-08T03:20:53.773Z,7.60
2018-05-08T03:23:21.363Z,7.60
2018-05-08T03:25:48.967Z,7.60
2018-05-08T03:28:16.608Z,7.60
2018-05-08T03:30:44.200Z,7.60
2018-05-08T03:33:12.597Z,7.60
2018-05-08T03:35:40.958Z,7.60
2018-05-08T03:38:08.562Z,7.60
2018-05-08T03:40:36.158Z,7.60
2018-05-08T03:43:03.778Z,7.70
2018-05-08T03:45:31.378Z,7.70
2018-05-08T03:47:59.021Z,7.80
2018-05-08T03:50:26.678Z,7.80
2018-05-08T03:52:54.273Z,7.90
2018-05-08T03:55:21.877Z,8.00
2018-05-08T03:57:50.254Z,8.20
2018-05-08T04:00:30.385Z,8.40
2018-05-08T04:03:09.653Z,8.40
2018-05-08T04:05:49.150Z,8.50
2018-05-08T04:08:28.407Z,8.70
2018-05-08T04:10:55.983Z,8.70
2018-05-08T04:13:23.584Z,8.90
2018-05-08T04:15:51.176Z,9.00
2018-05-08T04:18:19.544Z,9.20
2018-05-08T04:20:47.139Z,9.10
2018-05-08T04:23:15.506Z,9.30
2018-05-08T04:25:43.138Z,9.30
2018-05-08T04:28:10.732Z,9.40
2018-05-08T04:30:38.326Z,9.50
2018-05-08T04:33:05.935Z,9.60
2018-05-08T04:35:34.294Z,9.70
2018-05-08T04:38:01.890Z,9.70
2018-05-08T04:40:30.259Z,9.90
2018-05-08T04:42:57.857Z,9.90
2018-05-08T04:45:25.463Z,10.00
2018-05-08T04:47:53.843Z,10.20
2018-05-08T04:50:21.438Z,10.10
2018-05-08T04:52:49.034Z,10.20
2018-05-08T04:55:16.643Z,10.30
2018-05-08T04:57:45.003Z,10.50
2018-05-08T05:00:12.634Z,10.50
2018-05-08T05:02:40.334Z,10.60
2018-05-08T05:05:07.911Z,10.70
2018-05-08T05:07:35.506Z,10.70
2018-05-08T05:10:03.141Z,10.70
2018-05-08T05:12:30.737Z,10.80
2018-05-08T05:14:58.336Z,10.90
2018-05-08T05:17:26.720Z,11.20
2018-05-08T05:19:55.092Z,11.30
2018-05-08T05:22:22.710Z,11.30
2018-05-08T05:24:50.318Z,11.40
2018-05-08T05:27:18.678Z,11.60
2018-05-08T05:29:46.274Z,11.60
2018-05-08T05:32:13.887Z,11.60
2018-05-08T05:34:41.482Z,11.80
2018-05-08T05:37:09.078Z,11.90
2018-05-08T05:39:36.686Z,12.00
2018-05-08T05:42:04.298Z,12.10
2018-05-08T05:44:31.910Z,12.20
2018-05-08T05:46:59.514Z,12.30
2018-05-08T05:49:27.129Z,12.40
2018-05-08T05:51:54.739Z,12.50
2018-05-08T05:54:22.418Z,12.60
2018-05-08T05:56:50.019Z,12.70
2018-05-08T05:59:17.618Z,12.80
2018-05-08T06:01:45.228Z,12.80
2018-05-08T06:04:12.861Z,12.90
2018-05-08T06:06:40.482Z,13.10
2018-05-08T06:09:08.102Z,13.10
2018-05-08T06:11:35.719Z,13.30
2018-05-08T06:14:03.325Z,13.40
2018-05-08T06:16:31.732Z,13.70
2018-05-08T06:18:59.330Z,13.70
2018-05-08T06:21:26.924Z,13.90
2018-05-08T06:23:55.317Z,14.20
2018-05-08T06:26:23.734Z,14.30
2018-05-08T06:28:51.335Z,14.30
2018-05-08T06:31:19.027Z,14.50
2018-05-08T06:33:46.634Z,14.70
2018-05-08T06:36:14.230Z,14.90
2018-05-08T06:38:41.845Z,15.10
2018-05-08T06:41:09.441Z,15.20
2018-05-08T06:43:37.835Z,15.40
2018-05-08T06:46:05.451Z,15.40
2018-05-08T06:48:33.047Z,15.50
2018-05-08T06:51:00.667Z,15.60
2018-05-08T06:53:28.283Z,15.70
2018-05-08T06:55:55.890Z,15.80
2018-05-08T06:58:23.487Z,15.90
2018-05-08T07:00:51.860Z,16.10
2018-05-08T07:03:19.489Z,16.10
2018-05-08T07:05:47.135Z,16.30
2018-05-08T07:08:14.744Z,16.30
2018-05-08T07:10:43.110Z,16.60
2018-05-08T07:13:10.702Z,16.50
2018-05-08T07:15:38.451Z,16.60
2018-05-08T07:18:05.982Z,16.80
2018-05-08T07:20:34.384Z,17.10
2018-05-08T07:23:02.018Z,17.00
2018-05-08T07:25:29.618Z,17.20
2018-05-08T07:27:57.215Z,17.30
2018-05-08T07:30:24.822Z,17.40
2018-05-08T07:32:52.745Z,17.50
2018-05-08T07:35:20.342Z,17.40
2018-05-08T07:37:47.955Z,17.50
2018-05-08T07:40:15.570Z,17.60
2018-05-08T07:42:43.214Z,17.70
2018-05-08T07:45:10.851Z,17.80
2018-05-08T07:47:38.489Z,17.80
2018-05-08T07:50:06.093Z,17.90
2018-05-08T07:52:33.695Z,18.00
2018-05-08T07:55:01.320Z,18.10
2018-05-08T07:57:28.936Z,18.10
2018-05-08T07:59:56.541Z,18.20
2018-05-08T08:02:24.141Z,18.40
2018-05-08T08:04:52.499Z,18.50
2018-05-08T08:07:20.138Z,18.50
2018-05-08T08:09:47.743Z,18.50
2018-05-08T08:12:15.367Z,18.60
2018-05-08T08:14:43.758Z,18.80
2018-05-08T08:17:12.127Z,18.80
2018-05-08T08:19:40.510Z,19.00
2018-05-08T08:22:08.938Z,19.00
2018-05-08T08:24:36.534Z,19.00
2018-05-08T08:27:04.134Z,19.10
2018-05-08T08:29:31.747Z,19.10
2018-05-08T08:31:59.347Z,19.20
2018-05-08T08:34:27.727Z,19.20
2018-05-08T08:36:55.341Z,19.20
2018-05-08T08:39:22.965Z,19.30
2018-05-08T08:41:50.563Z,19.40
2018-05-08T08:44:18.170Z,19.50
2018-05-08T08:46:46.526Z,19.70
2018-05-08T08:49:14.930Z,19.80
2018-05-08T08:51:42.542Z,19.80
2018-05-08T08:54:10.138Z,19.80
2018-05-08T08:56:38.499Z,20.00
2018-05-08T08:59:06.107Z,20.00
2018-05-08T09:01:33.710Z,20.10
2018-05-08T09:04:01.340Z,20.20
2018-05-08T09:06:28.965Z,20.40
2018-05-08T09:08:57.323Z,20.70
2018-05-08T09:11:25.685Z,20.70
2018-05-08T09:13:53.309Z,20.70
2018-05-08T09:16:20.907Z,20.80
2018-05-08T09:18:48.517Z,20.80
2018-05-08T09:21:16.129Z,20.80
2018-05-08T09:23:43.730Z,21.00
2018-05-08T09:26:11.322Z,21.00
2018-05-08T09:28:38.932Z,21.10
2018-05-08T09:31:06.526Z,21.20
2018-05-08T09:33:34.175Z,21.10
2018-05-08T09:36:01.795Z,21.10
2018-05-08T09:38:29.406Z,21.00
2018-05-08T09:40:57.061Z,21.10
2018-05-08T09:43:25.433Z,21.20
2018-05-08T09:45:53.046Z,21.10
2018-05-08T09:48:20.682Z,21.20
2018-05-08T09:50:48.332Z,21.20
2018-05-08T09:53:15.939Z,21.30
2018-05-08T09:55:43.534Z,21.40
2018-05-08T09:58:11.162Z,21.50
2018-05-08T10:00:38.782Z,21.60
2018-05-08T10:03:06.373Z,21.70
2018-05-08T10:05:33.990Z,21.80
2018-05-08T10:08:01.587Z,21.90
2018-05-08T10:10:29.177Z,21.80
2018-05-08T10:12:56.858Z,21.90
2018-05-08T10:15:24.502Z,21.80
2018-05-08T10:17:52.862Z,21.70
2018-05-08T10:20:20.494Z,21.70
2018-05-08T10:22:48.090Z,21.60
2018-05-08T10:25:16.458Z,21.50
2018-05-08T10:27:44.077Z,21.50
2018-05-08T10:30:11.711Z,21.50
2018-05-08T10:32:39.311Z,21.60
2018-05-08T10:35:06.950Z,21.60
2018-05-08T10:37:34.555Z,21.60
2018-05-08T10:40:02.154Z,21.70
2018-05-08T10:42:29.762Z,21.90
2018-05-08T10:44:58.123Z,22.10
2018-05-08T10:47:25.709Z,22.00
2018-05-08T10:49:53.324Z,22.20
2018-05-08T10:52:20.926Z,22.30
2018-05-08T10:54:48.554Z,22.40
2018-05-08T10:57:16.182Z,22.50
2018-05-08T10:59:44.537Z,22.70
2018-05-08T11:02:12.148Z,22.70
2018-05-08T11:04:39.765Z,22.80
2018-05-08T11:07:08.128Z,23.00
2018-05-08T11:09:35.746Z,23.00
2018-05-08T11:12:03.394Z,23.10
2018-05-08T11:14:30.990Z,23.20
2018-05-08T11:16:58.578Z,23.20
2018-05-08T11:19:26.186Z,23.20
2018-05-08T11:21:53.786Z,23.10
2018-05-08T11:24:21.389Z,23.10
2018-05-08T11:26:54.921Z,23.00
2018-05-08T11:29:22.523Z,22.80
2018-05-08T11:31:50.883Z,22.50
2018-05-08T11:34:18.545Z,22.50
2018-05-08T11:36:46.195Z,22.40
2018-05-08T11:39:13.919Z,22.40
2018-05-08T11:41:41.509Z,22.40
2018-05-08T11:44:09.107Z,22.60
2018-05-08T11:46:36.702Z,22.70
2018-05-08T11:49:04.306Z,22.80
2018-05-08T11:51:31.905Z,22.90
2018-05-08T11:54:00.263Z,23.30
2018-05-08T11:56:28.657Z,23.50
2018-05-08T11:58:57.018Z,23.60
2018-05-08T12:01:24.622Z,23.60
2018-05-08T12:03:52.232Z,23.70
2018-05-08T12:06:19.830Z,23.80
2018-05-08T12:08:47.428Z,24.00
2018-05-08T12:11:15.036Z,24.00
2018-05-08T12:13:43.394Z,24.20
2018-05-08T12:16:10.990Z,24.10
2018-05-08T12:18:38.631Z,24.30
2018-05-08T12:21:06.232Z,24.40
2018-05-08T12:23:33.830Z,24.50
2018-05-08T12:26:01.452Z,24.60
2018-05-08T12:28:29.050Z,25.30
2018-05-08T12:30:56.646Z,26.00
2018-05-08T12:33:24.281Z,26.00
2018-05-08T12:35:51.902Z,25.70
2018-05-08T12:38:19.518Z,25.70
2018-05-08T12:40:47.129Z,26.00
2018-05-08T12:43:14.731Z,26.60
2018-05-08T12:45:42.410Z,27.10
2018-05-08T12:48:10.044Z,27.70
2018-05-08T12:50:37.658Z,28.00
2018-05-08T12:53:05.259Z,28.50
2018-05-08T12:55:33.634Z,28.50
2018-05-08T12:58:02.006Z,29.30
2018-05-08T13:00:29.612Z,29.20
2018-05-08T13:02:57.253Z,29.90
2018-05-08T13:05:24.931Z,30.60
2018-05-08T13:07:52.488Z,31.10
2018-05-08T13:10:20.983Z,31.60
2018-05-08T13:12:48.590Z,31.90
2018-05-08T13:15:16.198Z,32.20
2018-05-08T13:17:43.917Z,32.60
2018-05-08T13:20:11.521Z,32.10
2018-05-08T13:22:39.119Z,32.30
2018-05-08T13:25:06.757Z,32.40
2018-05-08T13:27:34.371Z,31.90
2018-05-08T13:30:02.749Z,33.10
2018-05-08T13:32:31.154Z,33.60
2018-05-08T13:34:58.751Z,33.60
2018-05-08T13:37:26.342Z,33.00
2018-05-08T13:39:54.730Z,32.70
2018-05-08T13:42:23.103Z,32.50
2018-05-08T13:44:51.468Z,31.40
2018-05-08T13:47:19.103Z,31.30
2018-05-08T13:49:46.714Z,30.80
2018-05-08T13:52:15.074Z,31.30
2018-05-08T13:54:42.703Z,31.30
2018-05-08T13:57:10.311Z,31.00
2018-05-08T13:59:38.670Z,32.80
2018-05-08T14:02:06.426Z,32.80
2018-05-08T14:04:34.023Z,32.70
2018-05-08T14:07:01.620Z,33.00
2018-05-08T14:09:29.246Z,33.40
2018-05-08T14:11:56.833Z,34.00
2018-05-08T14:14:24.437Z,34.00
2018-05-08T14:16:52.814Z,34.50
2018-05-08T14:19:20.484Z,34.50
2018-05-08T14:21:48.165Z,34.60
2018-05-08T14:24:15.798Z,34.90
2018-05-08T14:26:44.177Z,34.80
2018-05-08T14:29:12.583Z,34.30
2018-05-08T14:31:40.286Z,34.20
2018-05-08T14:34:07.847Z,34.20
2018-05-08T14:36:36.227Z,34.20
2018-05-08T14:39:03.842Z,34.10
2018-05-08T14:41:31.449Z,34.00
2018-05-08T14:43:59.054Z,34.10
2018-05-08T14:46:27.459Z,34.20
2018-05-08T14:48:55.079Z,34.30
2018-05-08T14:51:23.466Z,34.80
2018-05-08T14:53:51.850Z,34.70
2018-05-08T14:56:19.447Z,34.70
2018-05-08T14:58:47.042Z,35.50
2018-05-08T15:01:14.730Z,35.40
2018-05-08T15:03:42.328Z,36.10
2018-05-08T15:06:09.922Z,37.00
2018-05-08T15:08:37.541Z,38.00
2018-05-08T15:13:34.122Z,39.30
2018-05-08T15:16:01.750Z,39.60
2018-05-08T15:18:30.137Z,40.70
2018-05-08T15:20:57.827Z,40.60
2018-05-08T15:23:25.374Z,40.30
2018-05-08T15:25:52.971Z,39.80
2018-05-08T15:28:21.353Z,41.30
2018-05-08T15:30:49.027Z,41.10
2018-05-08T15:33:17.495Z,39.70
2018-05-08T15:35:45.095Z,38.90
2018-05-08T15:38:12.722Z,38.60
2018-05-08T15:40:40.330Z,37.60
2018-05-08T15:43:07.925Z,37.50
2018-05-08T15:45:35.534Z,37.50
2018-05-08T15:48:03.147Z,35.00
2018-05-08T15:50:30.780Z,32.70
2018-05-08T15:52:58.386Z,32.40
2018-05-08T15:55:26.747Z,29.30
2018-05-08T15:57:54.353Z,29.10
2018-05-08T16:00:21.958Z,27.90
2018-05-08T16:02:49.555Z,26.90
2018-05-08T16:05:17.159Z,26.40
2018-05-08T16:07:44.787Z,25.80
2018-05-08T16:10:12.387Z,25.40
2018-05-08T16:12:39.978Z,25.00
2018-05-08T16:15:07.606Z,24.50
2018-05-08T16:17:35.219Z,24.00
2018-05-08T16:20:02.839Z,23.70
2018-05-08T16:22:30.454Z,23.30
2018-05-08T16:24:58.063Z,23.10
2018-05-08T16:27:25.680Z,22.90
2018-05-08T16:29:53.285Z,22.50
2018-05-08T16:32:20.892Z,22.40
2018-05-08T16:34:48.490Z,22.20
2018-05-08T16:37:16.098Z,22.00
2018-05-08T16:39:43.702Z,21.90
2018-05-08T16:42:12.101Z,21.60
2018-05-08T16:44:39.720Z,21.60
2018-05-08T16:47:07.322Z,21.50
2018-05-08T16:49:34.931Z,21.40
2018-05-08T16:52:02.548Z,21.30
2018-05-08T16:54:30.915Z,21.10
2018-05-08T16:56:58.527Z,21.10
2018-05-08T16:59:26.140Z,21.00
2018-05-08T17:01:53.747Z,21.00
2018-05-08T17:04:22.158Z,20.90
2018-05-08T17:06:49.770Z,20.80
2018-05-08T17:09:17.379Z,20.80
2018-05-08T17:11:44.983Z,20.70
2018-05-08T17:14:13.364Z,20.60
2018-05-08T17:16:40.994Z,20.60
2018-05-08T17:19:08.660Z,20.50
2018-05-08T17:21:36.275Z,20.40
2018-05-08T17:24:03.870Z,20.30
2018-05-08T17:26:31.504Z,20.30
2018-05-08T17:28:59.138Z,20.10
2018-05-08T17:31:26.734Z,19.90
2018-05-08T17:33:54.334Z,19.80
2018-05-08T17:36:22.707Z,19.50
2018-05-08T17:38:50.333Z,19.50
2018-05-08T17:41:17.947Z,19.30
2018-05-08T17:43:45.582Z,19.20
2018-05-08T17:46:13.178Z,19.00
2018-05-08T17:48:40.776Z,18.80
2018-05-08T17:51:08.402Z,18.70
2018-05-08T17:53:36.003Z,18.50
2018-05-08T17:56:03.610Z,18.30
2018-05-08T17:58:31.224Z,18.10
2018-05-08T18:00:58.843Z,18.00
2018-05-08T18:03:26.446Z,17.90
2018-05-08T18:05:54.083Z,17.70
2018-05-08T18:08:22.450Z,17.40
2018-05-08T18:10:50.063Z,17.40
2018-05-08T18:13:17.674Z,17.20
2018-05-08T18:15:46.046Z,17.00
2018-05-08T18:18:13.648Z,17.00
2018-05-08T18:20:41.254Z,16.90
2018-05-08T18:23:08.866Z,16.80
2018-05-08T18:25:36.488Z,16.90
2018-05-08T18:28:04.894Z,16.70
2018-05-08T18:30:32.508Z,16.70
2018-05-08T18:33:00.946Z,16.50
2018-05-08T18:35:28.624Z,16.50
2018-05-08T18:37:56.258Z,16.40
2018-05-08T18:40:23.885Z,16.40
2018-05-08T18:42:51.527Z,16.30
2018-05-08T18:45:19.910Z,16.10
2018-05-08T18:47:48.270Z,16.00
2018-05-08T18:50:16.651Z,15.90
2018-05-08T18:52:45.083Z,15.80
2018-05-08T18:55:12.694Z,15.80
2018-05-08T18:57:41.086Z,15.60
2018-05-08T19:00:14.243Z,15.60
2018-05-08T19:02:41.871Z,15.60
2018-05-08T19:05:09.478Z,15.50
2018-05-08T19:07:37.092Z,15.40
2018-05-08T19:10:04.738Z,15.30
2018-05-08T19:12:32.899Z,15.40
2018-05-08T19:15:06.050Z,15.40
2018-05-08T19:17:33.658Z,15.30
2018-05-08T19:20:06.820Z,15.20
2018-05-08T19:22:34.467Z,15.20
2018-05-08T19:25:02.110Z,15.10
2018-05-08T19:27:29.738Z,14.90
2018-05-08T19:30:03.090Z,14.80
2018-05-08T19:32:31.474Z,14.50
2018-05-08T19:35:04.664Z,14.50
2018-05-08T19:37:38.702Z,14.40
2018-05-08T19:40:06.326Z,14.30
2018-05-08T19:42:33.941Z,14.30
2018-05-08T19:45:01.560Z,14.20
2018-05-08T19:47:29.929Z,14.00
2018-05-08T19:49:58.295Z,14.00
2018-05-08T19:52:25.993Z,13.90
2018-05-08T19:54:53.602Z,13.80
2018-05-08T19:57:21.222Z,13.70
2018-05-08T19:59:48.843Z,13.60
2018-05-08T20:02:16.447Z,13.60
2018-05-08T20:04:44.048Z,13.60
2018-05-08T20:07:11.662Z,13.50
2018-05-08T20:09:39.258Z,13.40
2018-05-08T20:12:06.852Z,13.40
2018-05-08T20:14:35.237Z,13.20
2018-05-08T20:17:03.612Z,13.10
2018-05-08T20:19:32.007Z,13.00
2018-05-08T20:21:59.630Z,13.00
2018-05-08T20:24:27.241Z,12.90
2018-05-08T20:26:54.863Z,12.90
2018-05-08T20:29:22.480Z,12.80
2018-05-08T20:31:50.105Z,12.80
2018-05-08T20:34:18.495Z,12.70
2018-05-08T20:36:46.183Z,12.60
2018-05-08T20:39:13.814Z,12.60
2018-05-08T20:41:41.410Z,12.60
2018-05-08T20:44:09.061Z,12.50
2018-05-08T20:46:36.718Z,12.50
2018-05-08T20:49:04.439Z,12.50
2018-05-08T20:51:32.062Z,12.40
2018-05-08T20:53:59.681Z,12.40
2018-05-08T20:56:27.274Z,12.40
2018-05-08T20:58:54.921Z,12.30
2018-05-08T21:01:22.714Z,12.30
2018-05-08T21:03:50.907Z,12.20
2018-05-08T21:06:18.557Z,12.20
2018-05-08T21:08:46.174Z,12.20
2018-05-08T21:11:13.871Z,12.10
2018-05-08T21:13:41.512Z,12.00
2018-05-08T21:16:09.160Z,12.00
2018-05-08T21:18:36.757Z,12.00
2018-05-08T21:21:04.398Z,11.90
2018-05-08T21:23:32.039Z,11.90
2018-05-08T21:26:00.403Z,11.80
2018-05-08T21:28:33.711Z,11.80
2018-05-08T21:31:06.858Z,11.70
2018-05-08T21:33:34.466Z,11.70
2018-05-08T21:36:02.070Z,11.60
2018-05-08T21:38:29.675Z,11.50
2018-05-08T21:40:57.286Z,11.50
2018-05-08T21:43:24.890Z,11.40
2018-05-08T21:45:52.501Z,11.40
2018-05-08T21:48:20.158Z,11.30
2018-05-08T21:50:47.758Z,11.20
2018-05-08T21:53:15.380Z,11.30
2018-05-08T21:55:42.995Z,11.20
2018-05-08T21:58:10.610Z,11.20
2018-05-08T22:00:38.205Z,11.10
2018-05-08T22:03:05.814Z,11.10
2018-05-08T22:05:33.411Z,11.00
2018-05-08T22:08:01.787Z,10.90
2018-05-08T22:10:30.158Z,10.80
2018-05-08T22:12:57.754Z,10.80
2018-05-08T22:15:25.346Z,10.80
2018-05-08T22:17:52.962Z,10.70
2018-05-08T22:20:20.560Z,10.70
2018-05-08T22:22:48.190Z,10.60
2018-05-08T22:25:15.802Z,10.60
2018-05-08T22:27:43.403Z,10.50
2018-05-08T22:30:11.842Z,10.40
2018-05-08T22:32:39.450Z,10.40
2018-05-08T22:35:07.046Z,10.30
2018-05-08T22:37:34.662Z,10.30
2018-05-08T22:40:02.276Z,10.30
2018-05-08T22:42:30.644Z,10.20
2018-05-08T22:44:58.259Z,10.20
2018-05-08T22:47:25.880Z,10.20
2018-05-08T22:49:53.481Z,10.10
2018-05-08T22:52:21.091Z,10.10
2018-05-08T22:54:48.698Z,10.10
2018-05-08T22:57:17.053Z,10.00
2018-05-08T22:59:44.650Z,10.00
2018-05-08T23:02:12.249Z,9.90
2018-05-08T23:04:39.842Z,9.90
2018-05-08T23:07:08.218Z,9.80
2018-05-08T23:09:35.866Z,9.80
2018-05-08T23:12:03.473Z,9.80
2018-05-08T23:14:31.063Z,9.80
2018-05-08T23:16:58.657Z,9.70
2018-05-08T23:19:26.245Z,9.70
2018-05-08T23:21:54.597Z,9.60
2018-05-08T23:24:22.241Z,9.60
2018-05-08T23:26:49.859Z,9.50
2018-05-08T23:29:17.477Z,9.60
2018-05-08T23:31:45.090Z,9.50
2018-05-08T23:34:12.684Z,9.50
2018-05-08T23:36:40.275Z,9.50
2018-05-08T23:39:08.646Z,9.40
2018-05-08T23:41:37.002Z,9.30
2018-05-08T23:44:04.628Z,9.30
2018-05-08T23:46:32.243Z,9.30
2018-05-08T23:49:00.597Z,9.30
2018-05-08T23:51:28.194Z,9.20
2018-05-08T23:53:56.562Z,9.20
2018-05-08T23:56:24.914Z,9.20
2018-05-08T23:58:52.507Z,9.20
